Time;durP1;ratioP1;P1;durP2;ratioP2;P2;SDS_P1;SDS_P2;PMS_P1;PMS_P2;Temp;Humidity;BMP_temperature;BMP_pressure;BME280_temperature;BME280_humidity;BME280_pressure;Samples;Min_cycle;Max_cycle;Signal;HPM_P1;HPM_P2
2022/03/23 00:01:04;;;;;;;79.70;50.47;;;;;;;;;;5033646;28;20033;-68
2022/03/23 00:03:31;;;;;;;87.40;51.47;;;;;;;;;;5033915;28;20259;-68
2022/03/23 00:05:56;;;;;;;86.18;51.40;;;;;;;;;;5033853;28;20041;-68
2022/03/23 00:08:22;;;;;;;85.72;51.15;;;;;;;;;;5033698;28;20053;-68
2022/03/23 00:10:48;;;;;;;80.13;52.55;;;;;;;;;;5034839;28;20033;-68
2022/03/23 00:13:15;;;;;;;84.25;52.08;;;;;;;;;;5033959;28;20230;-69
2022/03/23 00:15:41;;;;;;;84.72;52.53;;;;;;;;;;5017345;28;20050;-68
2022/03/23 00:18:07;;;;;;;92.55;52.97;;;;;;;;;;5033880;28;20522;-68
2022/03/23 00:20:33;;;;;;;88.90;51.78;;;;;;;;;;5033304;28;20180;-67
2022/03/23 00:23:00;;;;;;;84.45;50.67;;;;;;;;;;5017003;28;20114;-69
2022/03/23 00:25:26;;;;;;;84.32;50.67;;;8.90;99.90;;;;;;5033731;28;20116;-68
2022/03/23 00:27:52;;;;;;;87.88;51.38;;;;;;;;;;5033232;28;20058;-68
2022/03/23 00:30:17;;;;;;;85.68;52.78;;;8.90;99.90;;;;;;5033075;28;20124;-68
2022/03/23 00:32:43;;;;;;;89.50;52.65;;;8.90;99.90;;;;;;5033244;28;20121;-67
2022/03/23 00:35:09;;;;;;;85.40;51.63;;;8.70;99.90;;;;;;5033337;28;20407;-67
2022/03/23 00:37:35;;;;;;;87.15;51.65;;;8.80;99.90;;;;;;5034328;28;20120;-68
2022/03/23 00:40:01;;;;;;;84.65;51.38;;;8.70;99.90;;;;;;5016588;28;20476;-68
2022/03/23 00:42:27;;;;;;;87.93;52.13;;;;;;;;;;5034322;28;20049;-68
2022/03/23 00:44:53;;;;;;;86.50;52.05;;;8.80;99.90;;;;;;5033280;28;20068;-67
2022/03/23 00:47:18;;;;;;;83.03;50.08;;;8.50;99.90;;;;;;5034396;28;20049;-68
2022/03/23 00:49:45;;;;;;;84.05;49.22;;;8.70;99.90;;;;;;5032491;28;20033;-69
2022/03/23 00:52:11;;;;;;;84.07;49.45;;;8.70;99.90;;;;;;5033336;28;20040;-69
2022/03/23 00:54:37;;;;;;;77.22;47.05;;;8.40;99.90;;;;;;5034196;28;20103;-69
2022/03/23 00:57:05;;;;;;;72.78;45.47;;;8.90;99.90;;;;;;5033030;28;20033;-68
2022/03/23 00:59:31;;;;;;;82.30;49.47;;;8.40;99.90;;;;;;5033704;28;20041;-68
2022/03/23 01:01:57;;;;;;;86.13;50.42;;;8.40;99.90;;;;;;5032709;28;20049;-68
2022/03/23 01:04:23;;;;;;;75.35;47.78;;;8.60;99.90;;;;;;5034136;28;20120;-69
2022/03/23 01:06:52;;;;;;;68.90;44.72;;;8.50;99.90;;;;;;5032999;28;20065;-68
2022/03/23 01:09:22;;;;;;;78.22;45.35;;;;;;;;;;5031972;28;20073;-68
2022/03/23 01:11:48;;;;;;;74.55;43.80;;;;;;;;;;5032422;28;20042;-68
2022/03/23 01:14:14;;;;;;;76.63;46.65;;;;;;;;;;5032624;28;20042;-67
2022/03/23 01:16:40;;;;;;;72.60;43.85;;;;;;;;;;5032891;28;20041;-68
2022/03/23 01:19:07;;;;;;;67.25;42.17;;;;;;;;;;5032466;28;20042;-69
2022/03/23 01:21:32;;;;;;;71.05;44.03;;;;;;;;;;5032608;28;20099;-68
2022/03/23 01:23:58;;;;;;;72.10;43.83;;;;;;;;;;5032486;28;20487;-68
2022/03/23 01:26:24;;;;;;;71.10;42.58;;;;;;;;;;5032352;28;20523;-68
2022/03/23 01:28:50;;;;;;;74.35;43.55;;;;;;;;;;5032219;28;20049;-71
2022/03/23 01:31:16;;;;;;;73.70;42.33;;;;;;;;;;5032249;28;20043;-68
2022/03/23 01:33:42;;;;;;;72.55;43.88;;;;;;;;;;5032296;28;20077;-68
2022/03/23 01:36:08;;;;;;;70.50;42.03;;;;;;;;;;5032136;28;20041;-68
2022/03/23 01:38:34;;;;;;;67.22;41.55;;;;;;;;;;5032242;28;20419;-68
2022/03/23 01:41:00;;;;;;;71.63;42.53;;;;;;;;;;5032003;28;20033;-67
2022/03/23 01:43:26;;;;;;;67.88;43.75;;;;;;;;;;5031979;28;20052;-67
2022/03/23 01:45:53;;;;;;;65.10;40.63;;;;;;;;;;5031841;28;20140;-68
2022/03/23 01:48:18;;;;;;;68.72;41.95;;;7.90;99.90;;;;;;5031923;28;20488;-68
2022/03/23 01:50:44;;;;;;;68.75;41.03;;;;;;;;;;5031526;28;20049;-68
2022/03/23 01:53:10;;;;;;;65.15;40.63;;;;;;;;;;5031776;28;20037;-68
2022/03/23 01:55:36;;;;;;;66.55;41.38;;;;;;;;;;5031657;28;20060;-68
2022/03/23 01:58:02;;;;;;;73.60;43.10;;;;;;;;;;5032923;28;20049;-70
2022/03/23 02:00:28;;;;;;;77.65;44.22;;;7.70;99.90;;;;;;5033166;28;20071;-67
2022/03/23 02:02:54;;;;;;;67.07;42.53;;;7.70;99.90;;;;;;5031503;28;20045;-67
2022/03/23 02:05:20;;;;;;;72.28;44.08;;;;;;;;;;5031686;28;20396;-67
2022/03/23 02:07:46;;;;;;;77.47;45.40;;;;;;;;;;5031270;28;20041;-67
2022/03/23 02:10:12;;;;;;;72.88;44.45;;;7.80;99.90;;;;;;5031518;28;20099;-68
2022/03/23 02:12:38;;;;;;;72.10;45.80;;;;;;;;;;5031410;28;20533;-68
2022/03/23 02:15:16;;;;;;;71.75;44.50;;;7.70;99.90;;;;;;5032958;28;20462;-67
2022/03/23 02:17:42;;;;;;;71.32;44.65;;;7.70;99.90;;;;;;5031115;28;20049;-67
2022/03/23 02:20:09;;;;;;;73.07;44.17;;;;;;;;;;5030956;28;20049;-68
2022/03/23 02:22:35;;;;;;;78.88;43.63;;;;;;;;;;5030304;28;20053;-68
2022/03/23 02:25:01;;;;;;;66.15;44.03;;;7.70;99.90;;;;;;5032358;28;20069;-68
2022/03/23 02:27:27;;;;;;;79.97;45.65;;;;;;;;;;5031177;28;20076;-68
2022/03/23 02:29:57;;;;;;;73.75;43.35;;;7.70;99.90;;;;;;5031974;28;20044;-67
2022/03/23 02:32:24;;;;;;;78.03;43.45;;;7.60;99.90;;;;;;5032440;28;20110;-68
2022/03/23 02:34:50;;;;;;;70.40;43.03;;;;;;;;;;5031063;28;20049;-68
2022/03/23 02:37:16;;;;;;;70.78;44.33;;;;;;;;;;5030957;28;20045;-67
2022/03/23 02:39:42;;;;;;;70.53;44.53;;;;;;;;;;5031637;28;20550;-68
2022/03/23 02:42:08;;;;;;;71.95;44.10;;;;;;;;;;5030910;28;20041;-67
2022/03/23 02:44:34;;;;;;;73.80;43.28;;;7.50;99.90;;;;;;5031640;28;20048;-67
2022/03/23 02:47:01;;;;;;;85.43;44.78;;;;;;;;;;5048956;22;20393;-69
2022/03/23 02:49:27;;;;;;;64.28;41.85;;;;;;;;;;5005685;28;20081;-70
2022/03/23 02:51:53;;;;;;;68.90;41.33;;;;;;;;;;4997438;28;20041;-69
2022/03/23 03:03:14;;;;;;;68.22;41.30;;;7.30;99.90;;;;;;4991495;28;20050;-69
2022/03/23 03:05:40;;;;;;;75.88;45.95;;;7.20;99.90;;;;;;4993002;28;20130;-71
2022/03/23 03:10:50;;;;;;;66.97;43.35;;;;;;;;;;4991327;28;20042;-72
2022/03/23 03:13:16;;;;;;;71.60;43.13;;;;;;;;;;4991802;28;20044;-72
2022/03/23 03:15:42;;;;;;;66.22;43.35;;;;;;;;;;4991414;28;20519;-72
2022/03/23 03:18:08;;;;;;;73.95;41.85;;;;;;;;;;4992732;28;20519;-71
2022/03/23 03:20:34;;;;;;;67.32;41.78;;;7.20;99.90;;;;;;4991396;28;20043;-71
2022/03/23 03:22:59;;;;;;;64.88;40.63;;;;;;;;;;4991509;28;20042;-69
2022/03/23 03:25:25;;;;;;;67.07;42.20;;;7.10;99.90;;;;;;4975124;28;20559;-69
2022/03/23 03:27:51;;;;;;;68.45;39.85;;;;;;;;;;4974933;28;20416;-72
2022/03/23 03:30:18;;;;;;;71.32;43.42;;;7.00;99.90;;;;;;4990839;28;20061;-70
2022/03/23 03:32:44;;;;;;;71.15;43.35;;;7.00;99.90;;;;;;4991259;28;20034;-69
2022/03/23 03:35:11;;;;;;;64.72;41.25;;;7.20;99.90;;;;;;4991406;28;20081;-69
2022/03/23 03:37:37;;;;;;;72.57;43.25;;;;;;;;;;4992386;28;20057;-69
2022/03/23 03:40:05;;;;;;;65.75;40.58;;;7.20;99.90;;;;;;4990860;28;20125;-69
2022/03/23 03:42:30;;;;;;;70.57;42.50;;;7.00;99.90;;;;;;4990995;28;20038;-69
2022/03/23 03:44:57;;;;;;;72.97;43.80;;;7.00;99.90;;;;;;4990954;28;20180;-69
2022/03/23 03:47:23;;;;;;;77.72;45.92;;;7.00;99.90;;;;;;4990756;28;20305;-69
2022/03/23 03:49:50;;;;;;;72.55;43.47;;;7.00;99.90;;;;;;4990861;28;20117;-69
2022/03/23 03:52:16;;;;;;;68.03;42.90;;;7.00;99.90;;;;;;4991064;28;20160;-69
2022/03/23 03:54:41;;;;;;;78.90;45.08;;;7.00;99.90;;;;;;4991229;28;20039;-69
2022/03/23 03:57:07;;;;;;;71.70;44.47;;;6.90;99.90;;;;;;4991015;28;20034;-69
2022/03/23 03:59:34;;;;;;;75.30;45.45;;;6.80;99.90;;;;;;4990541;28;20225;-70
2022/03/23 04:02:00;;;;;;;76.85;48.20;;;6.90;99.90;;;;;;4990927;28;20046;-69
2022/03/23 04:04:26;;;;;;;73.00;44.28;;;;;;;;;;4992182;28;20050;-69
2022/03/23 04:06:52;;;;;;;71.13;44.42;;;;;;;;;;4992112;28;20046;-69
2022/03/23 04:09:18;;;;;;;80.45;46.78;;;6.80;99.90;;;;;;5023200;28;20409;-69
2022/03/23 04:11:44;;;;;;;76.15;46.15;;;6.80;99.90;;;;;;4991964;28;20129;-72
2022/03/23 04:14:10;;;;;;;76.57;45.55;;;6.70;99.90;;;;;;4990976;28;20125;-69
2022/03/23 04:16:35;;;;;;;77.40;44.40;;;6.80;99.90;;;;;;4990728;28;20125;-69
2022/03/23 04:19:03;;;;;;;70.10;42.05;;;;;;;;;;4990526;28;20042;-69
2022/03/23 04:21:29;;;;;;;70.22;43.15;;;6.70;99.90;;;;;;5023480;28;20120;-69
2022/03/23 04:23:54;;;;;;;78.15;41.85;;;;;;;;;;4974500;28;20129;-69
2022/03/23 04:26:20;;;;;;;68.00;42.80;;;6.80;99.90;;;;;;5023268;28;20043;-69
2022/03/23 04:28:46;;;;;;;71.47;42.28;;;;;;;;;;4990542;28;20097;-70
2022/03/23 04:31:12;;;;;;;72.32;43.72;;;6.70;99.90;;;;;;4990583;28;20042;-69
2022/03/23 04:33:37;;;;;;;70.60;42.58;;;6.60;99.90;;;;;;4990658;28;20045;-69
2022/03/23 04:36:03;;;;;;;72.30;43.97;;;6.50;99.90;;;;;;4974324;28;20038;-70
2022/03/23 04:38:29;;;;;;;76.57;44.05;;;;;;;;;;4990490;28;20046;-70
2022/03/23 04:40:56;;;;;;;75.38;44.40;;;;;;;;;;4973809;28;20053;-70
2022/03/23 04:43:21;;;;;;;74.40;42.67;;;6.70;99.90;;;;;;5023413;28;20094;-70
2022/03/23 04:45:47;;;;;;;72.30;44.03;;;;;;;;;;4992784;28;20081;-70
2022/03/23 04:48:13;;;;;;;72.10;44.13;;;;;;;;;;4993855;28;20042;-70
2022/03/23 04:50:40;;;;;;;72.63;43.47;;;;;;;;;;4991943;28;20042;-70
2022/03/23 04:53:06;;;;;;;68.60;41.30;;;;;;;;;;4974513;28;20047;-70
2022/03/23 04:55:32;;;;;;;71.90;42.50;;;6.70;99.90;;;;;;4958301;28;20045;-70
2022/03/23 04:58:00;;;;;;;68.13;42.25;;;;;;;;;;4974662;28;20050;-70
2022/03/23 05:00:26;;;;;;;68.95;41.55;;;6.40;99.90;;;;;;4974257;28;20054;-70
2022/03/23 05:02:52;;;;;;;65.70;39.55;;;;;;;;;;4978312;28;20065;-70
2022/03/23 05:05:18;;;;;;;67.07;40.83;;;;;;;;;;4993851;28;20043;-69
2022/03/23 05:07:44;;;;;;;72.13;41.90;;;6.50;99.90;;;;;;4993665;28;20086;-69
2022/03/23 05:10:12;;;;;;;67.72;41.67;;;6.50;99.90;;;;;;4993671;28;20541;-69
2022/03/23 05:12:42;;;;;;;70.03;41.25;;;6.40;99.90;;;;;;4993667;28;20043;-70
2022/03/23 05:15:08;;;;;;;73.75;42.78;;;6.40;99.90;;;;;;4993738;28;20492;-70
2022/03/23 05:17:35;;;;;;;66.72;40.65;;;6.40;99.90;;;;;;4993604;28;20042;-69
2022/03/23 05:20:01;;;;;;;65.32;39.58;;;;;;;;;;4993518;28;20467;-70
2022/03/23 05:22:27;;;;;;;65.95;40.45;;;6.30;99.90;;;;;;4993782;28;20042;-70
2022/03/23 05:24:53;;;;;;;70.80;41.08;;;;;;;;;;4993255;28;20125;-69
2022/03/23 05:27:19;;;;;;;65.63;39.55;;;6.40;99.90;;;;;;4993550;28;20355;-70
2022/03/23 05:29:44;;;;;;;76.38;43.97;;;6.30;99.90;;;;;;4993026;28;20042;-70
2022/03/23 05:32:16;;;;;;;71.95;42.88;;;;;;;;;;4993401;28;20122;-70
2022/03/23 05:34:49;;;;;;;69.38;42.28;;;6.40;99.90;;;;;;4993252;28;20081;-70
2022/03/23 05:37:15;;;;;;;69.25;41.03;;;6.60;99.90;;;;;;4976859;28;20038;-69
2022/03/23 05:39:41;;;;;;;68.28;41.42;;;6.50;99.90;;;;;;4992858;28;20046;-70
2022/03/23 05:42:07;;;;;;;70.28;42.45;;;6.40;99.90;;;;;;4993154;28;20069;-69
2022/03/23 05:44:33;;;;;;;80.72;44.78;;;6.40;99.90;;;;;;4993076;28;20088;-70
2022/03/23 05:46:59;;;;;;;72.32;43.42;;;6.30;99.90;;;;;;4977102;28;20068;-70
2022/03/23 05:49:25;;;;;;;78.88;45.38;;;6.60;99.90;;;;;;4976564;28;20125;-69
2022/03/23 05:51:52;;;;;;;75.75;41.60;;;;;;;;;;4990510;28;20038;-69
2022/03/23 05:54:18;;;;;;;66.53;40.17;;;6.40;99.90;;;;;;4976743;28;20120;-70
2022/03/23 05:56:43;;;;;;;72.63;42.30;;;6.40;99.90;;;;;;4992944;28;20485;-70
2022/03/23 05:59:09;;;;;;;71.78;43.15;;;;;;;;;;4992688;28;20050;-70
2022/03/23 06:01:36;;;;;;;72.70;44.17;;;;;;;;;;4993079;28;20046;-70
2022/03/23 06:04:02;;;;;;;67.97;39.92;;;;;;;;;;4993056;28;20050;-69
2022/03/23 06:06:28;;;;;;;80.63;45.17;;;6.60;99.90;;;;;;4992719;28;20153;-70
2022/03/23 06:08:53;;;;;;;76.18;44.30;;;6.60;99.90;;;;;;4992333;28;20054;-70
2022/03/23 06:11:19;;;;;;;83.07;47.85;;;;;;;;;;4992727;28;20038;-69
2022/03/23 06:13:45;;;;;;;79.97;48.65;;;6.90;99.90;;;;;;4992817;28;20038;-70
2022/03/23 06:16:11;;;;;;;93.00;49.63;;;6.80;99.90;;;;;;4992676;28;20109;-70
2022/03/23 06:18:37;;;;;;;82.43;48.38;;;6.80;99.90;;;;;;4992356;28;20042;-70
2022/03/23 06:21:03;;;;;;;79.60;47.03;;;6.90;99.90;;;;;;4976005;28;20128;-70
2022/03/23 06:23:29;;;;;;;84.25;49.78;;;;;;;;;;4992452;28;20133;-70
2022/03/23 06:25:55;;;;;;;84.25;49.53;;;7.10;99.90;;;;;;4976608;28;20537;-70
2022/03/23 06:28:23;;;;;;;80.82;47.58;;;;;;;;;;4992133;28;20042;-70
2022/03/23 06:30:48;;;;;;;82.38;49.65;;;7.20;99.90;;;;;;4991989;28;20042;-70
2022/03/23 06:33:14;;;;;;;81.40;47.92;;;7.20;99.90;;;;;;4992422;28;20107;-70
2022/03/23 06:35:39;;;;;;;77.20;47.15;;;7.30;99.90;;;;;;4992105;28;20034;-70
2022/03/23 06:38:05;;;;;;;85.15;46.50;;;7.40;99.90;;;;;;4991983;28;20100;-70
2022/03/23 06:40:31;;;;;;;88.72;49.25;;;;;;;;;;4992034;28;20046;-70
2022/03/23 06:42:57;;;;;;;80.35;47.53;;;;;;;;;;4991944;28;20042;-69
2022/03/23 06:45:22;;;;;;;86.22;49.63;;;7.50;99.90;;;;;;4991923;28;20034;-69
2022/03/23 06:47:48;;;;;;;81.93;47.53;;;7.60;99.90;;;;;;4991720;28;20042;-70
2022/03/23 06:50:14;;;;;;;91.32;49.45;;;7.60;99.90;;;;;;4991414;28;20370;-70
2022/03/23 06:52:39;;;;;;;77.10;46.03;;;7.80;99.90;;;;;;4991865;28;20146;-71
2022/03/23 06:55:06;;;;;;;81.32;48.75;;;7.80;99.90;;;;;;4976176;28;20042;-70
2022/03/23 06:57:31;;;;;;;80.70;47.70;;;7.80;99.90;;;;;;4991744;28;20050;-71
2022/03/23 06:59:57;;;;;;;89.05;48.40;;;7.80;99.90;;;;;;4985264;28;20339;-70
2022/03/23 07:02:23;;;;;;;79.82;45.83;;;;;;;;;;4971507;28;20501;-70
2022/03/23 07:04:49;;;;;;;80.07;46.55;;;;;;;;;;4981424;28;20045;-71
2022/03/23 07:07:15;;;;;;;80.95;46.95;;;;;;;;;;4952801;28;20351;-71
2022/03/23 07:09:41;;;;;;;78.43;44.80;;;;;;;;;;4968449;28;20107;-71
2022/03/23 07:12:12;;;;;;;77.65;45.78;;;8.10;99.90;;;;;;4968895;28;20122;-71
2022/03/23 07:14:41;;;;;;;80.45;47.60;;;8.20;99.90;;;;;;4976896;28;20484;-71
2022/03/23 07:17:07;;;;;;;81.50;45.63;;;8.20;99.90;;;;;;4987898;28;20115;-72
2022/03/23 07:19:33;;;;;;;76.28;44.72;;;8.20;99.90;;;;;;4971463;28;20035;-71
2022/03/23 07:21:59;;;;;;;72.63;43.75;;;8.40;99.90;;;;;;4988357;28;20125;-71
2022/03/23 07:24:25;;;;;;;81.38;46.58;;;8.50;99.90;;;;;;4985083;28;20046;-71
2022/03/23 07:26:50;;;;;;;79.10;44.78;;;8.60;99.90;;;;;;4988939;28;20053;-71
2022/03/23 07:29:16;;;;;;;77.50;42.38;;;8.60;99.90;;;;;;5002066;28;20050;-71
2022/03/23 07:31:42;;;;;;;67.68;39.97;;;8.90;99.90;;;;;;5008264;28;20038;-71
2022/03/23 07:34:08;;;;;;;68.68;41.92;;;;;;;;;;5009487;28;20049;-71
2022/03/23 07:36:37;;;;;;;69.97;42.13;;;;;;;;;;5010417;28;20635;-71
2022/03/23 07:39:03;;;;;;;78.07;44.95;;;9.30;99.90;;;;;;5008504;28;20049;-71
2022/03/23 07:41:29;;;;;;;77.32;42.03;;;;;;;;;;4993963;28;20037;-71
2022/03/23 07:43:55;;;;;;;73.78;42.50;;;;;;;;;;5010894;28;20093;-70
2022/03/23 07:46:21;;;;;;;72.53;40.97;;;;;;;;;;4994508;28;20057;-70
2022/03/23 07:48:47;;;;;;;69.00;40.88;;;;;;;;;;5010612;28;20542;-70
2022/03/23 07:51:12;;;;;;;73.25;39.58;;;9.50;99.90;;;;;;5010378;28;20038;-71
2022/03/23 07:53:38;;;;;;;66.28;40.58;;;9.90;99.90;;;;;;4994489;28;20400;-72
2022/03/23 07:56:04;;;;;;;72.35;41.58;;;9.90;99.90;;;;;;5010804;28;20033;-71
2022/03/23 07:58:30;;;;;;;67.60;40.47;;;;;;;;;;4994377;28;20492;-71
2022/03/23 08:00:56;;;;;;;66.32;41.50;;;;;;;;;;5011579;28;20050;-71
2022/03/23 08:03:22;;;;;;;65.50;39.28;;;10.50;99.90;;;;;;5010682;28;20062;-71
2022/03/23 08:05:48;;;;;;;59.28;35.78;;;;;;;;;;5010577;28;20189;-70
2022/03/23 08:08:14;;;;;;;62.00;36.83;;;;;;;;;;5010341;28;20096;-70
2022/03/23 08:10:42;;;;;;;60.35;35.30;;;10.60;99.90;;;;;;5010509;28;20042;-70
2022/03/23 08:13:09;;;;;;;59.25;35.33;;;;;;;;;;5010466;28;20527;-70
2022/03/23 08:15:39;;;;;;;57.58;35.25;;;10.80;99.90;;;;;;4977620;28;20042;-69
2022/03/23 08:18:05;;;;;;;60.58;35.10;;;;;;;;;;4990561;28;20074;-69
2022/03/23 08:20:35;;;;;;;58.92;33.92;;;;;;;;;;4992199;28;20046;-69
2022/03/23 08:23:02;;;;;;;54.45;30.02;;;11.20;99.90;;;;;;4994618;28;20046;-70
2022/03/23 08:25:28;;;;;;;50.13;32.20;;;11.20;99.90;;;;;;4994695;28;20560;-69
2022/03/23 08:27:55;;;;;;;49.35;30.88;;;11.40;99.90;;;;;;4990570;28;20173;-71
2022/03/23 08:30:21;;;;;;;54.03;32.25;;;;;;;;;;4994977;28;20217;-69
2022/03/23 08:32:46;;;;;;;52.53;31.55;;;11.60;99.90;;;;;;4995444;28;20043;-69
2022/03/23 08:35:12;;;;;;;46.30;31.00;;;11.80;99.90;;;;;;5014028;28;20417;-68
2022/03/23 08:37:38;;;;;;;52.78;32.17;;;11.60;99.90;;;;;;5014806;28;20403;-68
2022/03/23 08:40:05;;;;;;;51.05;30.15;;;12.00;99.90;;;;;;4996409;28;20040;-68
2022/03/23 08:42:30;;;;;;;52.00;29.73;;;12.00;99.90;;;;;;5013557;28;20041;-68
2022/03/23 08:44:56;;;;;;;50.33;29.75;;;12.20;99.90;;;;;;5013359;28;20514;-68
2022/03/23 08:47:23;;;;;;;51.70;30.27;;;;;;;;;;5048012;22;20041;-71
2022/03/23 08:49:49;;;;;;;51.78;29.98;;;;;;;;;;5051643;28;20132;-69
2022/03/23 08:52:15;;;;;;;51.97;31.35;;;;;;;;;;5054081;28;20124;-69
2022/03/23 08:54:41;;;;;;;50.53;30.30;;;;;;;;;;5053353;28;20379;-69
2022/03/23 08:57:07;;;;;;;53.13;31.80;;;;;;;;;;5053110;28;20522;-69
2022/03/23 08:59:33;;;;;;;53.92;32.85;;;;;;;;;;5052318;28;20132;-69
2022/03/23 09:01:58;;;;;;;49.13;31.15;;;12.60;99.90;;;;;;5053193;28;20044;-69
2022/03/23 09:04:24;;;;;;;48.53;29.88;;;12.80;99.90;;;;;;5052896;28;20188;-70
2022/03/23 09:06:50;;;;;;;59.55;32.35;;;;;;;;;;5052936;28;20098;-70
2022/03/23 09:09:16;;;;;;;52.80;29.98;;;;;;;;;;5053907;28;20044;-70
2022/03/23 09:11:43;;;;;;;56.00;32.33;;;;;;;;;;5050183;28;20070;-70
2022/03/23 09:14:09;;;;;;;50.25;30.13;;;;;;;;;;5043241;28;20052;-70
2022/03/23 09:16:35;;;;;;;47.70;29.45;;;;;;;;;;5042781;28;20068;-70
2022/03/23 09:19:02;;;;;;;47.90;30.58;;;;;;;;;;5029573;28;20060;-70
2022/03/23 09:21:27;;;;;;;51.35;29.27;;;13.10;99.90;;;;;;5052247;28;20045;-70
2022/03/23 09:23:53;;;;;;;46.55;29.27;;;;;;;;;;5053925;28;20045;-70
2022/03/23 09:26:19;;;;;;;41.85;27.77;;;;;;;;;;5052526;28;20045;-70
2022/03/23 09:28:46;;;;;;;38.17;25.63;;;;;;;;;;5052332;28;20090;-69
2022/03/23 09:31:12;;;;;;;39.15;25.15;;;;;;;;;;5051815;28;20119;-69
2022/03/23 09:33:38;;;;;;;44.53;27.00;;;;;;;;;;5053180;28;20128;-70
2022/03/23 09:36:04;;;;;;;47.80;26.75;;;13.90;99.90;;;;;;5052380;28;20045;-70
2022/03/23 09:38:30;;;;;;;42.08;26.17;;;;;;;;;;5052708;28;20095;-70
2022/03/23 09:40:56;;;;;;;37.70;25.30;;;14.10;99.90;;;;;;5051805;28;20045;-71
2022/03/23 09:43:23;;;;;;;39.60;24.27;;;14.10;99.90;;;;;;5052386;28;20047;-70
2022/03/23 09:45:51;;;;;;;39.75;24.90;;;14.30;99.90;;;;;;5052200;28;20041;-70
2022/03/23 09:48:21;;;;;;;39.88;25.67;;;14.40;99.90;;;;;;5042131;28;20041;-68
2022/03/23 09:50:50;;;;;;;40.00;24.80;;;14.40;99.30;;;;;;5040789;28;20416;-69
2022/03/23 09:53:16;;;;;;;39.65;24.48;;;14.60;99.40;;;;;;5027714;28;20036;-69
2022/03/23 09:55:45;;;;;;;42.25;22.67;;;14.70;96.50;;;;;;5051534;28;20041;-69
2022/03/23 09:58:11;;;;;;;40.25;23.05;;;14.90;98.00;;;;;;5050529;28;20090;-69
2022/03/23 10:00:42;;;;;;;42.20;22.80;;;15.20;97.00;;;;;;5034757;28;20053;-69
2022/03/23 10:03:09;;;;;;;35.65;21.80;;;;;;;;;;5039589;28;20098;-69
2022/03/23 10:06:12;;;;;;;34.40;21.27;;;15.10;95.50;;;;;;5020747;28;20093;-70
2022/03/23 10:09:09;;;;;;;43.08;22.23;;;15.20;96.60;;;;;;5037511;28;20034;-70
2022/03/23 10:11:56;;;;;;;32.40;20.73;;;15.20;95.40;;;;;;5038445;28;20375;-69
2022/03/23 10:14:44;;;;;;;35.88;20.48;;;15.40;96.90;;;;;;5045786;28;20045;-70
2022/03/23 10:17:48;;;;;;;33.45;20.98;;;15.30;97.10;;;;;;5035039;28;20029;-71
2022/03/23 10:20:14;;;;;;;39.35;24.02;;;;;;;;;;5043575;28;20052;-72
2022/03/23 10:22:48;;;;;;;35.53;23.02;;;15.60;95.70;;;;;;5039594;28;20037;-70
2022/03/23 10:25:15;;;;;;;36.03;22.33;;;15.50;94.90;;;;;;5039559;28;20037;-71
2022/03/23 10:27:43;;;;;;;35.58;23.70;;;15.60;97.00;;;;;;5040768;28;20041;-70
2022/03/23 10:30:09;;;;;;;34.78;22.50;;;15.70;96.20;;;;;;5037392;28;20044;-70
2022/03/23 10:32:42;;;;;;;33.90;22.23;;;15.90;97.00;;;;;;5037901;28;20095;-70
2022/03/23 10:35:16;;;;;;;35.20;23.70;;;16.10;94.80;;;;;;5025422;28;20029;-71
2022/03/23 10:37:43;;;;;;;33.85;23.65;;;16.00;96.40;;;;;;5035773;28;20107;-70
2022/03/23 10:40:17;;;;;;;29.75;20.88;;;16.20;97.00;;;;;;5046424;28;20064;-68
2022/03/23 10:42:44;;;;;;;33.67;21.02;;;16.10;96.90;;;;;;5037189;28;20394;-68
2022/03/23 10:45:17;;;;;;;31.80;21.40;;;16.10;96.10;;;;;;5041731;28;20044;-68
2022/03/23 10:47:46;;;;;;;30.75;20.23;;;16.30;95.80;;;;;;5019174;28;20075;-68
2022/03/23 10:50:23;;;;;;;31.98;19.73;;;16.20;95.30;;;;;;5036107;28;20040;-70
2022/03/23 10:53:06;;;;;;;28.83;19.38;;;16.30;95.50;;;;;;5033539;28;20484;-70
2022/03/23 10:55:41;;;;;;;27.30;18.63;;;16.50;95.40;;;;;;5040112;28;20048;-69
2022/03/23 10:58:27;;;;;;;27.70;18.80;;;16.60;94.50;;;;;;5033508;28;20045;-69
2022/03/23 11:00:58;;;;;;;33.78;19.70;;;16.40;94.30;;;;;;5046305;28;20071;-70
2022/03/23 11:03:38;;;;;;;28.30;17.92;;;16.30;95.10;;;;;;5040600;28;20549;-70
2022/03/23 11:06:10;;;;;;;32.45;18.70;;;16.60;94.10;;;;;;5035332;28;20049;-70
2022/03/23 11:08:35;;;;;;;25.75;16.33;;;17.60;93.80;;;;;;5037100;28;20037;-69
2022/03/23 11:16:48;;;;;;;25.58;16.92;;;17.20;94.70;;;;;;5035852;28;20045;-69
2022/03/23 11:19:23;;;;;;;30.42;17.75;;;16.90;94.20;;;;;;5034577;28;20148;-70
2022/03/23 11:22:09;;;;;;;27.08;15.82;;;17.20;92.40;;;;;;5041884;28;20503;-71
2022/03/23 11:24:41;;;;;;;28.92;15.40;;;17.40;93.30;;;;;;5043062;28;20125;-69
2022/03/23 11:27:09;;;;;;;28.48;15.27;;;17.30;92.60;;;;;;5042842;28;20045;-70
2022/03/23 11:29:37;;;;;;;27.35;14.98;;;17.60;93.00;;;;;;5040479;28;20040;-70
2022/03/23 11:32:14;;;;;;;27.17;14.13;;;17.30;91.30;;;;;;5046403;28;20078;-72
2022/03/23 11:34:40;;;;;;;22.70;14.05;;;17.50;91.70;;;;;;5023180;28;20451;-70
2022/03/23 11:37:07;;;;;;;23.83;12.65;;;17.40;91.90;;;;;;5041528;28;20044;-70
2022/03/23 11:39:34;;;;;;;32.70;15.13;;;17.40;92.80;;;;;;5040616;28;20084;-71
2022/03/23 11:42:03;;;;;;;26.17;13.98;;;17.30;92.30;;;;;;5037448;28;20068;-69
2022/03/23 11:44:28;;;;;;;26.40;14.75;;;17.50;91.70;;;;;;5032183;28;20039;-68
2022/03/23 11:47:04;;;;;;;25.77;12.05;;;17.60;91.20;;;;;;5038970;28;20068;-69
2022/03/23 11:49:39;;;;;;;21.08;12.90;;;18.00;91.70;;;;;;5040837;28;20060;-71
2022/03/23 11:52:39;;;;;;;23.67;13.02;;;17.60;91.60;;;;;;5034165;28;20461;-70
2022/03/23 11:57:55;;;;;;;26.38;12.93;;;18.00;89.30;;;;;;5033324;28;20041;-70
2022/03/23 12:00:22;;;;;;;27.60;14.20;;;17.90;90.70;;;;;;5039221;28;20098;-67
2022/03/23 12:02:48;;;;;;;27.98;14.35;;;17.70;90.60;;;;;;5030666;28;20037;-69
2022/03/23 12:05:29;;;;;;;29.00;14.80;;;17.90;90.70;;;;;;5042050;28;20218;-70
2022/03/23 12:07:55;;;;;;;19.38;9.90;;;17.90;90.00;;;;;;5049666;28;20040;-70
2022/03/23 12:10:23;;;;;;;19.52;10.07;;;18.00;90.70;;;;;;5045950;28;20618;-70
2022/03/23 12:12:49;;;;;;;17.83;10.27;;;18.30;90.90;;;;;;5029483;28;20760;-71
2022/03/23 12:15:24;;;;;;;20.10;11.48;;;18.10;90.00;;;;;;5046236;28;20087;-70
2022/03/23 12:17:58;;;;;;;21.00;10.80;;;18.20;90.00;;;;;;5051048;28;20585;-67
2022/03/23 12:20:32;;;;;;;22.85;12.32;;;18.30;90.60;;;;;;5034758;28;20225;-70
2022/03/23 12:23:30;;;;;;;20.65;11.60;;;18.10;90.70;;;;;;5025274;28;20037;-70
2022/03/23 12:26:04;;;;;;;28.60;13.02;;;18.10;90.40;;;;;;5029796;28;20136;-69
2022/03/23 12:28:54;;;;;;;22.30;9.98;;;18.20;90.80;;;;;;5032083;28;20424;-70
2022/03/23 12:31:22;;;;;;;18.17;9.70;;;18.40;88.10;;;;;;5040416;28;20047;-71
2022/03/23 12:34:08;;;;;;;18.58;10.80;;;18.20;90.50;;;;;;5039758;28;20049;-69
2022/03/23 12:36:56;;;;;;;22.15;10.52;;;18.30;89.80;;;;;;5043377;28;20044;-68
2022/03/23 12:39:29;;;;;;;24.25;11.98;;;18.30;90.80;;;;;;5049188;28;20045;-68
2022/03/23 12:41:57;;;;;;;21.02;10.38;;;18.40;86.80;;;;;;5049828;28;20049;-68
2022/03/23 12:44:35;;;;;;;21.02;11.55;;;19.20;90.00;;;;;;5049174;28;20037;-68
2022/03/23 12:47:05;;;;;;;17.23;10.05;;;18.40;90.30;;;;;;5049106;28;20128;-68
2022/03/23 12:58:10;;;;;;;22.00;11.27;;;18.40;90.00;;;;;;5049545;28;20374;-71
2022/03/23 13:00:45;;;;;;;20.02;11.65;;;18.50;90.00;;;;;;5048772;28;20044;-69
2022/03/23 13:03:10;;;;;;;15.90;11.15;;;20.60;88.40;;;;;;5049505;28;20032;-69
2022/03/23 13:05:59;;;;;;;16.70;8.75;;;20.40;88.60;;;;;;5032728;28;20102;-70
2022/03/23 13:08:29;;;;;;;19.60;9.73;;;20.30;89.60;;;;;;5043165;28;20060;-69
2022/03/23 13:10:58;;;;;;;19.85;10.18;;;18.50;89.00;;;;;;5052540;28;20502;-69
2022/03/23 13:13:24;;;;;;;20.50;7.93;;;20.10;90.50;;;;;;5036088;28;20037;-69
2022/03/23 13:15:53;;;;;;;24.23;8.73;;;18.90;89.30;;;;;;5052654;28;20067;-69
2022/03/23 13:18:24;;;;;;;14.45;5.93;;;18.80;88.40;;;;;;5052524;28;20067;-69
2022/03/23 13:20:51;;;;;;;18.15;6.68;;;18.80;90.10;;;;;;5053630;28;20047;-69
2022/03/23 13:23:20;;;;;;;29.27;8.10;;;18.80;89.50;;;;;;5052454;28;20041;-69
2022/03/23 13:25:59;;;;;;;17.20;8.10;;;18.50;87.00;;;;;;5052739;28;20048;-69
2022/03/23 13:28:25;;;;;;;20.75;7.25;;;18.60;89.20;;;;;;5052506;28;20072;-68
2022/03/23 13:30:58;;;;;;;18.13;8.52;;;18.60;86.70;;;;;;5055115;28;20069;-69
2022/03/23 13:33:23;;;;;;;18.63;8.25;;;18.80;89.90;;;;;;5054303;28;20380;-69
2022/03/23 13:35:50;;;;;;;16.50;9.13;;;19.50;89.80;;;;;;5052650;28;20033;-69
2022/03/23 13:38:15;;;;;;;26.25;9.98;;;18.70;89.10;;;;;;5052649;28;20045;-69
2022/03/23 13:43:30;;;;;;;22.70;9.82;;;18.80;88.80;;;;;;5052358;28;20483;-69